sensor_id;sensor_type;location;lat;lon;timestamp;P1;durP1;ratioP1;P2;durP2;ratioP2
9520;SDS011;4798;41.574;23.734;2023-12-20T00:01:52;1.30;;;1.00;;
9520;SDS011;4798;41.574;23.734;2023-12-20T00:04:28;2.90;;;1.03;;
9520;SDS011;4798;41.574;23.734;2023-12-20T00:06:57;1.80;;;1.67;;
9520;SDS011;4798;41.574;23.734;2023-12-20T00:09:26;4.83;;;1.63;;
9520;SDS011;4798;41.574;23.734;2023-12-20T00:11:55;0.90;;;0.90;;
9520;SDS011;4798;41.574;23.734;2023-12-20T00:14:23;0.53;;;0.53;;
9520;SDS011;4798;41.574;23.734;2023-12-20T00:16:52;1.73;;;1.63;;
9520;SDS011;4798;41.574;23.734;2023-12-20T00:19:20;0.70;;;0.70;;
9520;SDS011;4798;41.574;23.734;2023-12-20T00:21:50;1.00;;;1.00;;
9520;SDS011;4798;41.574;23.734;2023-12-20T00:24:19;0.87;;;0.87;;
9520;SDS011;4798;41.574;23.734;2023-12-20T00:26:48;3.70;;;1.57;;
9520;SDS011;4798;41.574;23.734;2023-12-20T00:29:16;1.90;;;1.80;;
9520;SDS011;4798;41.574;23.734;2023-12-20T00:31:45;1.07;;;0.97;;
9520;SDS011;4798;41.574;23.734;2023-12-20T00:34:14;1.73;;;1.63;;
9520;SDS011;4798;41.574;23.734;2023-12-20T00:36:42;1.73;;;1.63;;
9520;SDS011;4798;41.574;23.734;2023-12-20T00:39:13;0.50;;;0.50;;
9520;SDS011;4798;41.574;23.734;2023-12-20T00:41:41;1.70;;;1.60;;
9520;SDS011;4798;41.574;23.734;2023-12-20T00:44:10;1.00;;;0.97;;
9520;SDS011;4798;41.574;23.734;2023-12-20T00:46:38;2.20;;;1.10;;
9520;SDS011;4798;41.574;23.734;2023-12-20T00:49:07;1.43;;;1.27;;
9520;SDS011;4798;41.574;23.734;2023-12-20T00:51:36;3.10;;;0.63;;
9520;SDS011;4798;41.574;23.734;2023-12-20T00:54:04;1.73;;;1.50;;
9520;SDS011;4798;41.574;23.734;2023-12-20T00:56:35;1.90;;;1.80;;
9520;SDS011;4798;41.574;23.734;2023-12-20T00:59:03;1.43;;;0.73;;
9520;SDS011;4798;41.574;23.734;2023-12-20T01:01:32;0.93;;;0.93;;
9520;SDS011;4798;41.574;23.734;2023-12-20T01:04:00;1.07;;;0.70;;
9520;SDS011;4798;41.574;23.734;2023-12-20T01:06:29;1.13;;;1.13;;
9520;SDS011;4798;41.574;23.734;2023-12-20T01:08:58;1.10;;;0.60;;
9520;SDS011;4798;41.574;23.734;2023-12-20T01:11:26;0.80;;;0.70;;
9520;SDS011;4798;41.574;23.734;2023-12-20T01:13:57;0.50;;;0.40;;
9520;SDS011;4798;41.574;23.734;2023-12-20T01:16:25;0.83;;;0.60;;
9520;SDS011;4798;41.574;23.734;2023-12-20T01:18:54;0.83;;;0.83;;
9520;SDS011;4798;41.574;23.734;2023-12-20T01:21:22;5.07;;;2.00;;
9520;SDS011;4798;41.574;23.734;2023-12-20T01:23:51;1.30;;;1.20;;
9520;SDS011;4798;41.574;23.734;2023-12-20T01:26:20;0.63;;;0.63;;
9520;SDS011;4798;41.574;23.734;2023-12-20T01:28:48;1.23;;;1.13;;
9520;SDS011;4798;41.574;23.734;2023-12-20T01:31:18;2.93;;;1.37;;
9520;SDS011;4798;41.574;23.734;2023-12-20T01:33:47;7.40;;;2.50;;
9520;SDS011;4798;41.574;23.734;2023-12-20T01:36:16;1.63;;;1.53;;
9520;SDS011;4798;41.574;23.734;2023-12-20T01:38:44;3.00;;;0.97;;
9520;SDS011;4798;41.574;23.734;2023-12-20T01:41:13;4.03;;;2.30;;
9520;SDS011;4798;41.574;23.734;2023-12-20T01:43:42;1.00;;;1.00;;
9520;SDS011;4798;41.574;23.734;2023-12-20T01:46:18;2.00;;;1.40;;
9520;SDS011;4798;41.574;23.734;2023-12-20T01:48:48;3.30;;;1.60;;
9520;SDS011;4798;41.574;23.734;2023-12-20T01:51:17;0.70;;;0.70;;
9520;SDS011;4798;41.574;23.734;2023-12-20T01:53:47;2.00;;;0.60;;
9520;SDS011;4798;41.574;23.734;2023-12-20T01:56:16;5.30;;;1.00;;
9520;SDS011;4798;41.574;23.734;2023-12-20T01:58:46;0.73;;;0.60;;
9520;SDS011;4798;41.574;23.734;2023-12-20T02:01:15;1.03;;;0.90;;
9520;SDS011;4798;41.574;23.734;2023-12-20T02:03:46;0.63;;;0.60;;
9520;SDS011;4798;41.574;23.734;2023-12-20T02:06:16;0.97;;;0.83;;
9520;SDS011;4798;41.574;23.734;2023-12-20T02:08:46;0.50;;;0.50;;
9520;SDS011;4798;41.574;23.734;2023-12-20T02:11:14;2.20;;;1.50;;
9520;SDS011;4798;41.574;23.734;2023-12-20T02:13:43;1.03;;;0.60;;
9520;SDS011;4798;41.574;23.734;2023-12-20T02:16:12;1.60;;;0.93;;
9520;SDS011;4798;41.574;23.734;2023-12-20T02:18:41;1.43;;;1.33;;
9520;SDS011;4798;41.574;23.734;2023-12-20T02:21:12;0.70;;;0.60;;
9520;SDS011;4798;41.574;23.734;2023-12-20T02:23:42;0.40;;;0.30;;
9520;SDS011;4798;41.574;23.734;2023-12-20T02:26:10;4.20;;;0.90;;
9520;SDS011;4798;41.574;23.734;2023-12-20T02:28:40;6.80;;;1.47;;
9520;SDS011;4798;41.574;23.734;2023-12-20T02:31:09;2.17;;;1.37;;
9520;SDS011;4798;41.574;23.734;2023-12-20T02:33:38;1.40;;;1.30;;
9520;SDS011;4798;41.574;23.734;2023-12-20T02:36:08;1.73;;;1.63;;
9520;SDS011;4798;41.574;23.734;2023-12-20T02:38:37;2.10;;;0.70;;
9520;SDS011;4798;41.574;23.734;2023-12-20T02:41:07;7.40;;;1.40;;
9520;SDS011;4798;41.574;23.734;2023-12-20T02:43:35;1.03;;;0.93;;
9520;SDS011;4798;41.574;23.734;2023-12-20T02:46:04;0.60;;;0.60;;
9520;SDS011;4798;41.574;23.734;2023-12-20T02:48:33;0.90;;;0.80;;
9520;SDS011;4798;41.574;23.734;2023-12-20T02:51:01;5.30;;;2.23;;
9520;SDS011;4798;41.574;23.734;2023-12-20T02:53:30;0.50;;;0.50;;
9520;SDS011;4798;41.574;23.734;2023-12-20T02:55:59;0.87;;;0.67;;
9520;SDS011;4798;41.574;23.734;2023-12-20T02:58:29;4.43;;;1.87;;
9520;SDS011;4798;41.574;23.734;2023-12-20T03:00:57;1.90;;;1.80;;
9520;SDS011;4798;41.574;23.734;2023-12-20T03:03:26;1.63;;;1.07;;
9520;SDS011;4798;41.574;23.734;2023-12-20T03:05:55;0.70;;;0.50;;
9520;SDS011;4798;41.574;23.734;2023-12-20T03:08:23;0.97;;;0.83;;
9520;SDS011;4798;41.574;23.734;2023-12-20T03:10:55;0.77;;;0.50;;
9520;SDS011;4798;41.574;23.734;2023-12-20T03:13:24;1.23;;;0.80;;
9520;SDS011;4798;41.574;23.734;2023-12-20T03:15:54;1.50;;;1.40;;
9520;SDS011;4798;41.574;23.734;2023-12-20T03:18:23;0.47;;;0.47;;
9520;SDS011;4798;41.574;23.734;2023-12-20T03:20:51;2.20;;;1.13;;
9520;SDS011;4798;41.574;23.734;2023-12-20T03:23:20;0.60;;;0.53;;
9520;SDS011;4798;41.574;23.734;2023-12-20T03:25:48;0.73;;;0.73;;
9520;SDS011;4798;41.574;23.734;2023-12-20T03:28:17;2.60;;;1.27;;
9520;SDS011;4798;41.574;23.734;2023-12-20T03:30:46;2.93;;;1.53;;
9520;SDS011;4798;41.574;23.734;2023-12-20T03:33:16;2.10;;;2.03;;
9520;SDS011;4798;41.574;23.734;2023-12-20T03:35:44;2.60;;;1.23;;
9520;SDS011;4798;41.574;23.734;2023-12-20T03:38:12;2.20;;;1.03;;
9520;SDS011;4798;41.574;23.734;2023-12-20T03:40:40;1.90;;;1.80;;
9520;SDS011;4798;41.574;23.734;2023-12-20T03:43:09;1.07;;;0.77;;
9520;SDS011;4798;41.574;23.734;2023-12-20T03:45:37;2.10;;;1.90;;
9520;SDS011;4798;41.574;23.734;2023-12-20T03:48:06;3.20;;;2.33;;
9520;SDS011;4798;41.574;23.734;2023-12-20T03:50:37;12.73;;;2.20;;
9520;SDS011;4798;41.574;23.734;2023-12-20T03:53:05;1.53;;;0.77;;
9520;SDS011;4798;41.574;23.734;2023-12-20T03:55:34;3.13;;;0.60;;
9520;SDS011;4798;41.574;23.734;2023-12-20T03:58:03;1.10;;;0.90;;
9520;SDS011;4798;41.574;23.734;2023-12-20T04:00:33;1.37;;;1.27;;
9520;SDS011;4798;41.574;23.734;2023-12-20T04:03:02;0.93;;;0.93;;
9520;SDS011;4798;41.574;23.734;2023-12-20T04:05:31;2.30;;;0.67;;
9520;SDS011;4798;41.574;23.734;2023-12-20T04:08:02;1.73;;;1.30;;
9520;SDS011;4798;41.574;23.734;2023-12-20T04:10:31;2.40;;;0.87;;
9520;SDS011;4798;41.574;23.734;2023-12-20T04:12:59;2.00;;;0.93;;
9520;SDS011;4798;41.574;23.734;2023-12-20T04:15:28;1.40;;;1.30;;
9520;SDS011;4798;41.574;23.734;2023-12-20T04:17:56;3.60;;;1.20;;
9520;SDS011;4798;41.574;23.734;2023-12-20T04:20:25;0.93;;;0.93;;
9520;SDS011;4798;41.574;23.734;2023-12-20T04:22:54;3.67;;;1.80;;
9520;SDS011;4798;41.574;23.734;2023-12-20T04:25:24;1.33;;;1.23;;
9520;SDS011;4798;41.574;23.734;2023-12-20T04:27:52;3.67;;;3.37;;
9520;SDS011;4798;41.574;23.734;2023-12-20T04:30:21;1.90;;;1.80;;
9520;SDS011;4798;41.574;23.734;2023-12-20T04:32:49;1.07;;;0.90;;
9520;SDS011;4798;41.574;23.734;2023-12-20T04:35:18;10.07;;;1.37;;
9520;SDS011;4798;41.574;23.734;2023-12-20T04:37:47;7.40;;;1.07;;
9520;SDS011;4798;41.574;23.734;2023-12-20T04:40:16;1.43;;;1.33;;
9520;SDS011;4798;41.574;23.734;2023-12-20T04:42:46;1.43;;;0.93;;
9520;SDS011;4798;41.574;23.734;2023-12-20T04:45:15;0.70;;;0.70;;
9520;SDS011;4798;41.574;23.734;2023-12-20T04:47:45;0.70;;;0.43;;
9520;SDS011;4798;41.574;23.734;2023-12-20T04:50:15;1.53;;;0.90;;
9520;SDS011;4798;41.574;23.734;2023-12-20T04:52:44;0.70;;;0.70;;
9520;SDS011;4798;41.574;23.734;2023-12-20T04:55:12;1.90;;;1.60;;
9520;SDS011;4798;41.574;23.734;2023-12-20T04:57:41;1.60;;;1.50;;
9520;SDS011;4798;41.574;23.734;2023-12-20T05:00:12;2.97;;;1.40;;
9520;SDS011;4798;41.574;23.734;2023-12-20T05:02:42;1.07;;;1.07;;
9520;SDS011;4798;41.574;23.734;2023-12-20T05:05:10;0.77;;;0.77;;
9520;SDS011;4798;41.574;23.734;2023-12-20T05:07:39;2.00;;;1.90;;
9520;SDS011;4798;41.574;23.734;2023-12-20T05:10:08;1.70;;;0.90;;
9520;SDS011;4798;41.574;23.734;2023-12-20T05:12:37;1.03;;;1.03;;
9520;SDS011;4798;41.574;23.734;2023-12-20T05:15:06;0.60;;;0.60;;
9520;SDS011;4798;41.574;23.734;2023-12-20T05:17:37;1.33;;;1.23;;
9520;SDS011;4798;41.574;23.734;2023-12-20T05:20:06;1.13;;;0.73;;
9520;SDS011;4798;41.574;23.734;2023-12-20T05:22:35;1.13;;;1.03;;
9520;SDS011;4798;41.574;23.734;2023-12-20T05:25:05;1.57;;;1.47;;
9520;SDS011;4798;41.574;23.734;2023-12-20T05:27:34;4.17;;;1.77;;
9520;SDS011;4798;41.574;23.734;2023-12-20T05:30:03;4.90;;;1.70;;
9520;SDS011;4798;41.574;23.734;2023-12-20T05:32:32;2.10;;;1.57;;
9520;SDS011;4798;41.574;23.734;2023-12-20T05:35:02;2.80;;;2.67;;
9520;SDS011;4798;41.574;23.734;2023-12-20T05:37:31;2.87;;;2.67;;
9520;SDS011;4798;41.574;23.734;2023-12-20T05:39:59;3.63;;;3.33;;
9520;SDS011;4798;41.574;23.734;2023-12-20T05:42:28;8.43;;;1.27;;
9520;SDS011;4798;41.574;23.734;2023-12-20T05:44:56;2.67;;;2.50;;
9520;SDS011;4798;41.574;23.734;2023-12-20T05:47:25;8.13;;;2.40;;
9520;SDS011;4798;41.574;23.734;2023-12-20T05:49:54;6.10;;;2.60;;
9520;SDS011;4798;41.574;23.734;2023-12-20T05:52:24;3.87;;;3.57;;
9520;SDS011;4798;41.574;23.734;2023-12-20T05:54:53;17.77;;;6.53;;
9520;SDS011;4798;41.574;23.734;2023-12-20T05:57:22;4.80;;;3.70;;
9520;SDS011;4798;41.574;23.734;2023-12-20T05:59:51;2.87;;;2.73;;
9520;SDS011;4798;41.574;23.734;2023-12-20T06:02:19;3.43;;;3.10;;
9520;SDS011;4798;41.574;23.734;2023-12-20T06:04:48;4.40;;;4.10;;
9520;SDS011;4798;41.574;23.734;2023-12-20T06:07:16;5.30;;;1.67;;
9520;SDS011;4798;41.574;23.734;2023-12-20T06:09:47;5.73;;;3.43;;
9520;SDS011;4798;41.574;23.734;2023-12-20T06:12:15;3.40;;;2.20;;
9520;SDS011;4798;41.574;23.734;2023-12-20T06:14:44;1.53;;;1.43;;
9520;SDS011;4798;41.574;23.734;2023-12-20T06:17:13;2.37;;;2.10;;
9520;SDS011;4798;41.574;23.734;2023-12-20T06:19:41;2.13;;;1.30;;
9520;SDS011;4798;41.574;23.734;2023-12-20T06:22:11;9.70;;;2.20;;
9520;SDS011;4798;41.574;23.734;2023-12-20T06:24:40;2.53;;;2.43;;
9520;SDS011;4798;41.574;23.734;2023-12-20T06:27:10;1.60;;;1.50;;
9520;SDS011;4798;41.574;23.734;2023-12-20T06:29:39;2.47;;;2.27;;
9520;SDS011;4798;41.574;23.734;2023-12-20T06:32:09;2.20;;;1.93;;
9520;SDS011;4798;41.574;23.734;2023-12-20T06:34:37;3.70;;;1.27;;
9520;SDS011;4798;41.574;23.734;2023-12-20T06:37:06;1.93;;;1.73;;
9520;SDS011;4798;41.574;23.734;2023-12-20T06:39:35;0.80;;;0.80;;
9520;SDS011;4798;41.574;23.734;2023-12-20T06:42:04;3.53;;;1.87;;
9520;SDS011;4798;41.574;23.734;2023-12-20T06:44:33;0.90;;;0.90;;
9520;SDS011;4798;41.574;23.734;2023-12-20T06:47:03;1.40;;;0.83;;
9520;SDS011;4798;41.574;23.734;2023-12-20T06:49:32;3.10;;;1.30;;
9520;SDS011;4798;41.574;23.734;2023-12-20T06:52:01;5.07;;;1.50;;
9520;SDS011;4798;41.574;23.734;2023-12-20T06:54:30;8.00;;;2.07;;
9520;SDS011;4798;41.574;23.734;2023-12-20T06:57:00;8.43;;;4.50;;
9520;SDS011;4798;41.574;23.734;2023-12-20T06:59:29;3.17;;;2.87;;
9520;SDS011;4798;41.574;23.734;2023-12-20T07:01:59;11.90;;;3.07;;
9520;SDS011;4798;41.574;23.734;2023-12-20T07:04:28;4.07;;;3.80;;
9520;SDS011;4798;41.574;23.734;2023-12-20T07:06:57;3.00;;;2.10;;
9520;SDS011;4798;41.574;23.734;2023-12-20T07:09:27;4.53;;;2.90;;
9520;SDS011;4798;41.574;23.734;2023-12-20T07:11:55;3.50;;;3.30;;
9520;SDS011;4798;41.574;23.734;2023-12-20T07:14:24;3.00;;;2.80;;
9520;SDS011;4798;41.574;23.734;2023-12-20T07:16:53;5.70;;;4.20;;
9520;SDS011;4798;41.574;23.734;2023-12-20T07:19:23;4.70;;;4.30;;
9520;SDS011;4798;41.574;23.734;2023-12-20T07:21:51;6.23;;;4.87;;
9520;SDS011;4798;41.574;23.734;2023-12-20T07:24:20;3.67;;;3.37;;
9520;SDS011;4798;41.574;23.734;2023-12-20T07:26:49;4.30;;;3.00;;
9520;SDS011;4798;41.574;23.734;2023-12-20T07:29:18;3.43;;;3.07;;
9520;SDS011;4798;41.574;23.734;2023-12-20T07:31:47;14.70;;;3.67;;
9520;SDS011;4798;41.574;23.734;2023-12-20T07:34:15;12.80;;;4.50;;
9520;SDS011;4798;41.574;23.734;2023-12-20T07:36:45;5.07;;;3.47;;
9520;SDS011;4798;41.574;23.734;2023-12-20T07:39:14;19.70;;;6.27;;
9520;SDS011;4798;41.574;23.734;2023-12-20T07:41:43;11.17;;;6.47;;
9520;SDS011;4798;41.574;23.734;2023-12-20T07:44:12;10.03;;;6.40;;
9520;SDS011;4798;41.574;23.734;2023-12-20T07:46:42;9.43;;;5.50;;
9520;SDS011;4798;41.574;23.734;2023-12-20T07:49:10;8.23;;;7.37;;
9520;SDS011;4798;41.574;23.734;2023-12-20T07:51:39;5.17;;;2.87;;
9520;SDS011;4798;41.574;23.734;2023-12-20T07:54:09;5.13;;;3.70;;
9520;SDS011;4798;41.574;23.734;2023-12-20T07:56:38;2.93;;;2.73;;
9520;SDS011;4798;41.574;23.734;2023-12-20T07:59:07;4.97;;;3.33;;
9520;SDS011;4798;41.574;23.734;2023-12-20T08:01:48;4.33;;;1.90;;
9520;SDS011;4798;41.574;23.734;2023-12-20T08:04:16;1.73;;;1.63;;
9520;SDS011;4798;41.574;23.734;2023-12-20T08:06:45;2.07;;;1.83;;
9520;SDS011;4798;41.574;23.734;2023-12-20T08:09:15;5.30;;;2.07;;
9520;SDS011;4798;41.574;23.734;2023-12-20T08:11:44;8.03;;;2.70;;
9520;SDS011;4798;41.574;23.734;2023-12-20T08:14:13;6.33;;;3.43;;
9520;SDS011;4798;41.574;23.734;2023-12-20T08:16:44;2.20;;;1.93;;
9520;SDS011;4798;41.574;23.734;2023-12-20T08:19:13;7.33;;;2.43;;
9520;SDS011;4798;41.574;23.734;2023-12-20T08:21:42;4.20;;;2.10;;
9520;SDS011;4798;41.574;23.734;2023-12-20T08:24:10;4.70;;;2.07;;
9520;SDS011;4798;41.574;23.734;2023-12-20T08:26:40;1.50;;;1.40;;
9520;SDS011;4798;41.574;23.734;2023-12-20T08:29:09;1.17;;;1.10;;
9520;SDS011;4798;41.574;23.734;2023-12-20T08:31:37;2.47;;;1.60;;
9520;SDS011;4798;41.574;23.734;2023-12-20T08:34:06;1.03;;;1.03;;
9520;SDS011;4798;41.574;23.734;2023-12-20T08:36:35;2.97;;;1.10;;
9520;SDS011;4798;41.574;23.734;2023-12-20T08:39:04;0.80;;;0.70;;
9520;SDS011;4798;41.574;23.734;2023-12-20T08:41:34;0.50;;;0.50;;
9520;SDS011;4798;41.574;23.734;2023-12-20T08:44:05;5.53;;;2.30;;
9520;SDS011;4798;41.574;23.734;2023-12-20T08:46:33;1.70;;;1.03;;
9520;SDS011;4798;41.574;23.734;2023-12-20T08:49:02;1.23;;;1.03;;
9520;SDS011;4798;41.574;23.734;2023-12-20T08:51:32;3.27;;;1.33;;
9520;SDS011;4798;41.574;23.734;2023-12-20T08:54:00;2.50;;;1.23;;
9520;SDS011;4798;41.574;23.734;2023-12-20T08:56:30;2.60;;;1.07;;
9520;SDS011;4798;41.574;23.734;2023-12-20T08:58:58;2.30;;;2.10;;
9520;SDS011;4798;41.574;23.734;2023-12-20T09:01:28;5.33;;;1.63;;
9520;SDS011;4798;41.574;23.734;2023-12-20T09:03:57;2.30;;;2.20;;
9520;SDS011;4798;41.574;23.734;2023-12-20T09:06:26;2.37;;;2.23;;
9520;SDS011;4798;41.574;23.734;2023-12-20T09:08:54;3.20;;;3.00;;
9520;SDS011;4798;41.574;23.734;2023-12-20T09:11:23;6.30;;;3.23;;
9520;SDS011;4798;41.574;23.734;2023-12-20T09:13:52;2.60;;;2.40;;
9520;SDS011;4798;41.574;23.734;2023-12-20T09:16:20;2.23;;;2.03;;
9520;SDS011;4798;41.574;23.734;2023-12-20T09:18:50;9.67;;;2.10;;
9520;SDS011;4798;41.574;23.734;2023-12-20T09:21:19;1.37;;;1.23;;
9520;SDS011;4798;41.574;23.734;2023-12-20T09:23:48;2.57;;;2.47;;
9520;SDS011;4798;41.574;23.734;2023-12-20T09:26:17;2.50;;;2.37;;
9520;SDS011;4798;41.574;23.734;2023-12-20T09:28:45;5.77;;;2.70;;
9520;SDS011;4798;41.574;23.734;2023-12-20T09:31:14;2.57;;;2.47;;
9520;SDS011;4798;41.574;23.734;2023-12-20T09:33:43;3.33;;;2.73;;
9520;SDS011;4798;41.574;23.734;2023-12-20T09:36:13;1.33;;;1.23;;
9520;SDS011;4798;41.574;23.734;2023-12-20T09:38:42;3.20;;;2.13;;
9520;SDS011;4798;41.574;23.734;2023-12-20T09:41:13;2.33;;;2.17;;
9520;SDS011;4798;41.574;23.734;2023-12-20T09:43:41;1.43;;;1.33;;
9520;SDS011;4798;41.574;23.734;2023-12-20T09:46:10;2.03;;;1.87;;
9520;SDS011;4798;41.574;23.734;2023-12-20T09:48:44;5.10;;;1.80;;
9520;SDS011;4798;41.574;23.734;2023-12-20T09:51:14;2.07;;;1.87;;
9520;SDS011;4798;41.574;23.734;2023-12-20T09:53:43;2.67;;;2.10;;
9520;SDS011;4798;41.574;23.734;2023-12-20T09:56:13;5.80;;;2.20;;
9520;SDS011;4798;41.574;23.734;2023-12-20T09:58:42;4.03;;;3.03;;
9520;SDS011;4798;41.574;23.734;2023-12-20T10:01:11;1.50;;;1.40;;
9520;SDS011;4798;41.574;23.734;2023-12-20T10:03:40;2.33;;;1.53;;
9520;SDS011;4798;41.574;23.734;2023-12-20T10:06:09;1.43;;;0.90;;
9520;SDS011;4798;41.574;23.734;2023-12-20T10:08:40;1.20;;;1.03;;
9520;SDS011;4798;41.574;23.734;2023-12-20T10:11:08;1.00;;;1.00;;
9520;SDS011;4798;41.574;23.734;2023-12-20T10:13:39;1.93;;;1.10;;
9520;SDS011;4798;41.574;23.734;2023-12-20T10:16:08;6.00;;;1.33;;
9520;SDS011;4798;41.574;23.734;2023-12-20T10:18:36;1.00;;;0.90;;
9520;SDS011;4798;41.574;23.734;2023-12-20T10:21:06;1.30;;;1.03;;
9520;SDS011;4798;41.574;23.734;2023-12-20T10:23:37;1.70;;;1.60;;
9520;SDS011;4798;41.574;23.734;2023-12-20T10:26:09;5.30;;;1.00;;
9520;SDS011;4798;41.574;23.734;2023-12-20T10:28:39;5.70;;;1.80;;
9520;SDS011;4798;41.574;23.734;2023-12-20T10:31:07;1.10;;;0.70;;
9520;SDS011;4798;41.574;23.734;2023-12-20T10:33:36;1.70;;;1.33;;
9520;SDS011;4798;41.574;23.734;2023-12-20T10:36:09;19.70;;;1.13;;
9520;SDS011;4798;41.574;23.734;2023-12-20T10:38:40;9.30;;;0.90;;
9520;SDS011;4798;41.574;23.734;2023-12-20T10:41:12;1.30;;;1.20;;
9520;SDS011;4798;41.574;23.734;2023-12-20T10:43:43;1.83;;;1.67;;
9520;SDS011;4798;41.574;23.734;2023-12-20T10:46:14;2.33;;;2.20;;
9520;SDS011;4798;41.574;23.734;2023-12-20T10:48:45;0.50;;;0.40;;
9520;SDS011;4798;41.574;23.734;2023-12-20T10:51:17;1.40;;;1.30;;
9520;SDS011;4798;41.574;23.734;2023-12-20T10:53:47;0.70;;;0.40;;
9520;SDS011;4798;41.574;23.734;2023-12-20T10:56:18;0.93;;;0.80;;
9520;SDS011;4798;41.574;23.734;2023-12-20T10:58:48;3.63;;;0.60;;
9520;SDS011;4798;41.574;23.734;2023-12-20T11:01:18;0.97;;;0.97;;
9520;SDS011;4798;41.574;23.734;2023-12-20T11:03:49;1.17;;;0.50;;
9520;SDS011;4798;41.574;23.734;2023-12-20T11:06:26;1.73;;;1.63;;
9520;SDS011;4798;41.574;23.734;2023-12-20T11:09:05;3.73;;;2.17;;
9520;SDS011;4798;41.574;23.734;2023-12-20T11:11:50;0.83;;;0.80;;
9520;SDS011;4798;41.574;23.734;2023-12-20T11:14:29;13.23;;;1.87;;
9520;SDS011;4798;41.574;23.734;2023-12-20T11:17:06;1.37;;;0.70;;
9520;SDS011;4798;41.574;23.734;2023-12-20T11:19:38;2.60;;;0.70;;
9520;SDS011;4798;41.574;23.734;2023-12-20T11:22:29;1.80;;;1.70;;
9520;SDS011;4798;41.574;23.734;2023-12-20T11:25:03;0.70;;;0.40;;
9520;SDS011;4798;41.574;23.734;2023-12-20T11:27:35;1.60;;;1.50;;
9520;SDS011;4798;41.574;23.734;2023-12-20T11:30:04;0.60;;;0.30;;
9520;SDS011;4798;41.574;23.734;2023-12-20T11:32:35;0.40;;;0.37;;
9520;SDS011;4798;41.574;23.734;2023-12-20T11:35:17;0.53;;;0.40;;
9520;SDS011;4798;41.574;23.734;2023-12-20T11:37:48;2.80;;;2.10;;
9520;SDS011;4798;41.574;23.734;2023-12-20T11:40:17;0.53;;;0.50;;
9520;SDS011;4798;41.574;23.734;2023-12-20T11:42:50;0.50;;;0.50;;
9520;SDS011;4798;41.574;23.734;2023-12-20T11:45:21;0.60;;;0.60;;
9520;SDS011;4798;41.574;23.734;2023-12-20T11:47:56;0.47;;;0.30;;
9520;SDS011;4798;41.574;23.734;2023-12-20T11:50:25;1.37;;;1.17;;
9520;SDS011;4798;41.574;23.734;2023-12-20T11:52:55;0.80;;;0.80;;
9520;SDS011;4798;41.574;23.734;2023-12-20T11:55:23;0.63;;;0.63;;
9520;SDS011;4798;41.574;23.734;2023-12-20T11:57:54;0.80;;;0.60;;
9520;SDS011;4798;41.574;23.734;2023-12-20T12:00:22;1.60;;;0.50;;
9520;SDS011;4798;41.574;23.734;2023-12-20T12:02:56;3.63;;;0.40;;
9520;SDS011;4798;41.574;23.734;2023-12-20T12:05:26;0.50;;;0.40;;
9520;SDS011;4798;41.574;23.734;2023-12-20T12:07:54;1.07;;;1.00;;
9520;SDS011;4798;41.574;23.734;2023-12-20T12:10:23;1.00;;;0.90;;
9520;SDS011;4798;41.574;23.734;2023-12-20T12:12:53;1.83;;;1.07;;
9520;SDS011;4798;41.574;23.734;2023-12-20T12:15:22;0.50;;;0.50;;
9520;SDS011;4798;41.574;23.734;2023-12-20T12:17:54;0.70;;;0.60;;
9520;SDS011;4798;41.574;23.734;2023-12-20T12:20:23;0.70;;;0.37;;
9520;SDS011;4798;41.574;23.734;2023-12-20T12:22:58;1.33;;;1.23;;
9520;SDS011;4798;41.574;23.734;2023-12-20T12:25:28;0.80;;;0.80;;
9520;SDS011;4798;41.574;23.734;2023-12-20T12:27:59;0.50;;;0.30;;
9520;SDS011;4798;41.574;23.734;2023-12-20T12:30:28;0.60;;;0.30;;
9520;SDS011;4798;41.574;23.734;2023-12-20T12:33:04;0.53;;;0.40;;
9520;SDS011;4798;41.574;23.734;2023-12-20T12:35:34;0.73;;;0.40;;
9520;SDS011;4798;41.574;23.734;2023-12-20T12:38:02;1.33;;;1.23;;
9520;SDS011;4798;41.574;23.734;2023-12-20T12:40:34;1.23;;;0.93;;
9520;SDS011;4798;41.574;23.734;2023-12-20T12:43:05;2.60;;;0.80;;
9520;SDS011;4798;41.574;23.734;2023-12-20T12:45:51;1.17;;;1.10;;
9520;SDS011;4798;41.574;23.734;2023-12-20T12:48:19;2.43;;;1.50;;
9520;SDS011;4798;41.574;23.734;2023-12-20T12:50:49;0.80;;;0.80;;
9520;SDS011;4798;41.574;23.734;2023-12-20T12:53:19;0.80;;;0.70;;
9520;SDS011;4798;41.574;23.734;2023-12-20T12:55:48;1.50;;;1.40;;
9520;SDS011;4798;41.574;23.734;2023-12-20T12:58:18;5.70;;;1.17;;
9520;SDS011;4798;41.574;23.734;2023-12-20T13:00:47;0.87;;;0.70;;
9520;SDS011;4798;41.574;23.734;2023-12-20T13:03:16;0.70;;;0.70;;
9520;SDS011;4798;41.574;23.734;2023-12-20T13:05:44;0.73;;;0.50;;
9520;SDS011;4798;41.574;23.734;2023-12-20T13:08:13;1.87;;;1.77;;
9520;SDS011;4798;41.574;23.734;2023-12-20T13:10:42;0.50;;;0.50;;
9520;SDS011;4798;41.574;23.734;2023-12-20T13:13:11;0.50;;;0.40;;
9520;SDS011;4798;41.574;23.734;2023-12-20T13:15:41;0.73;;;0.40;;
9520;SDS011;4798;41.574;23.734;2023-12-20T13:18:14;2.30;;;1.47;;
9520;SDS011;4798;41.574;23.734;2023-12-20T13:20:43;1.10;;;0.90;;
9520;SDS011;4798;41.574;23.734;2023-12-20T13:23:12;1.00;;;0.80;;
9520;SDS011;4798;41.574;23.734;2023-12-20T13:25:41;2.10;;;2.00;;
9520;SDS011;4798;41.574;23.734;2023-12-20T13:28:10;0.93;;;0.90;;
9520;SDS011;4798;41.574;23.734;2023-12-20T13:30:38;1.23;;;1.20;;
9520;SDS011;4798;41.574;23.734;2023-12-20T13:33:09;2.53;;;1.17;;
9520;SDS011;4798;41.574;23.734;2023-12-20T13:35:39;0.70;;;0.70;;
9520;SDS011;4798;41.574;23.734;2023-12-20T13:38:07;1.13;;;1.03;;
9520;SDS011;4798;41.574;23.734;2023-12-20T13:40:36;14.17;;;1.90;;
9520;SDS011;4798;41.574;23.734;2023-12-20T13:43:04;1.53;;;1.43;;
9520;SDS011;4798;41.574;23.734;2023-12-20T13:45:33;1.43;;;1.33;;
9520;SDS011;4798;41.574;23.734;2023-12-20T13:48:03;1.63;;;1.53;;
9520;SDS011;4798;41.574;23.734;2023-12-20T13:50:33;2.67;;;2.30;;
9520;SDS011;4798;41.574;23.734;2023-12-20T13:53:01;3.00;;;2.80;;
9520;SDS011;4798;41.574;23.734;2023-12-20T13:55:30;7.13;;;1.50;;
9520;SDS011;4798;41.574;23.734;2023-12-20T13:57:59;5.00;;;2.87;;
9520;SDS011;4798;41.574;23.734;2023-12-20T14:00:28;4.10;;;2.57;;
9520;SDS011;4798;41.574;23.734;2023-12-20T14:02:57;2.17;;;1.97;;
9520;SDS011;4798;41.574;23.734;2023-12-20T14:05:27;4.40;;;1.60;;
9520;SDS011;4798;41.574;23.734;2023-12-20T14:07:56;2.90;;;1.70;;
9520;SDS011;4798;41.574;23.734;2023-12-20T14:10:25;2.13;;;1.30;;
9520;SDS011;4798;41.574;23.734;2023-12-20T14:12:54;0.90;;;0.77;;
9520;SDS011;4798;41.574;23.734;2023-12-20T14:15:23;1.30;;;1.20;;
9520;SDS011;4798;41.574;23.734;2023-12-20T14:17:52;0.70;;;0.63;;
9520;SDS011;4798;41.574;23.734;2023-12-20T14:20:21;1.07;;;1.07;;
9520;SDS011;4798;41.574;23.734;2023-12-20T14:22:51;1.37;;;0.87;;
9520;SDS011;4798;41.574;23.734;2023-12-20T14:25:20;1.07;;;0.77;;
9520;SDS011;4798;41.574;23.734;2023-12-20T14:27:49;2.00;;;1.20;;
9520;SDS011;4798;41.574;23.734;2023-12-20T14:30:18;1.90;;;1.30;;
9520;SDS011;4798;41.574;23.734;2023-12-20T14:32:47;1.27;;;1.17;;
9520;SDS011;4798;41.574;23.734;2023-12-20T14:35:16;2.80;;;2.60;;
9520;SDS011;4798;41.574;23.734;2023-12-20T14:37:46;3.83;;;2.10;;
9520;SDS011;4798;41.574;23.734;2023-12-20T14:40:16;0.50;;;0.50;;
9520;SDS011;4798;41.574;23.734;2023-12-20T14:42:45;2.40;;;1.00;;
9520;SDS011;4798;41.574;23.734;2023-12-20T14:45:14;1.17;;;1.17;;
9520;SDS011;4798;41.574;23.734;2023-12-20T14:47:44;1.13;;;1.03;;
9520;SDS011;4798;41.574;23.734;2023-12-20T14:50:15;1.80;;;1.67;;
9520;SDS011;4798;41.574;23.734;2023-12-20T14:52:46;1.07;;;0.90;;
9520;SDS011;4798;41.574;23.734;2023-12-20T14:55:14;0.97;;;0.90;;
9520;SDS011;4798;41.574;23.734;2023-12-20T14:57:46;1.40;;;1.30;;
9520;SDS011;4798;41.574;23.734;2023-12-20T15:00:16;0.80;;;0.60;;
9520;SDS011;4798;41.574;23.734;2023-12-20T15:02:45;1.03;;;0.93;;
9520;SDS011;4798;41.574;23.734;2023-12-20T15:05:14;4.33;;;1.10;;
9520;SDS011;4798;41.574;23.734;2023-12-20T15:07:44;1.07;;;1.03;;
9520;SDS011;4798;41.574;23.734;2023-12-20T15:10:14;0.60;;;0.50;;
9520;SDS011;4798;41.574;23.734;2023-12-20T15:12:45;0.70;;;0.70;;
9520;SDS011;4798;41.574;23.734;2023-12-20T15:15:14;2.33;;;2.13;;